sensor_id;sensor_type;location;lat;lon;timestamp;pressure;altitude;pressure_sealevel;temperature;humidity
64876;BME280;51369;49.862;9.908;2022-11-14T00:02:23;98447.22;;;5.92;80.11
64876;BME280;51369;49.862;9.908;2022-11-14T00:05:08;98435.59;;;5.93;79.97
64876;BME280;51369;49.862;9.908;2022-11-14T00:07:52;98440.94;;;5.93;79.73
64876;BME280;51369;49.862;9.908;2022-11-14T00:10:36;98450.78;;;5.92;80.04
64876;BME280;51369;49.862;9.908;2022-11-14T00:13:20;98441.75;;;5.96;80.33
64876;BME280;51369;49.862;9.908;2022-11-14T00:16:04;98439.00;;;5.99;80.47
64876;BME280;51369;49.862;9.908;2022-11-14T00:18:48;98438.94;;;6.02;80.00
64876;BME280;51369;49.862;9.908;2022-11-14T00:21:32;98433.59;;;6.01;80.07
64876;BME280;51369;49.862;9.908;2022-11-14T00:24:16;98441.66;;;6.01;79.80
64876;BME280;51369;49.862;9.908;2022-11-14T00:27:00;98433.59;;;6.01;79.98
64876;BME280;51369;49.862;9.908;2022-11-14T00:29:44;98432.75;;;5.99;79.93
64876;BME280;51369;49.862;9.908;2022-11-14T00:32:29;98423.00;;;5.96;79.59
64876;BME280;51369;49.862;9.908;2022-11-14T00:35:13;98428.38;;;5.95;79.58
64876;BME280;51369;49.862;9.908;2022-11-14T00:37:57;98423.97;;;5.92;79.73
64876;BME280;51369;49.862;9.908;2022-11-14T00:40:41;98422.25;;;5.88;79.85
64876;BME280;51369;49.862;9.908;2022-11-14T00:43:25;98423.28;;;5.82;79.59
64876;BME280;51369;49.862;9.908;2022-11-14T00:46:09;98415.41;;;5.75;79.47
64876;BME280;51369;49.862;9.908;2022-11-14T00:48:54;98417.31;;;5.70;79.66
64876;BME280;51369;49.862;9.908;2022-11-14T00:51:38;98412.13;;;5.62;79.14
64876;BME280;51369;49.862;9.908;2022-11-14T00:54:21;98413.16;;;5.56;79.33
64876;BME280;51369;49.862;9.908;2022-11-14T00:57:06;98409.72;;;5.50;79.04
64876;BME280;51369;49.862;9.908;2022-11-14T00:59:49;98413.44;;;5.43;79.29
64876;BME280;51369;49.862;9.908;2022-11-14T01:02:33;98404.69;;;5.35;79.13
64876;BME280;51369;49.862;9.908;2022-11-14T01:05:18;98407.44;;;5.32;79.42
64876;BME280;51369;49.862;9.908;2022-11-14T01:08:02;98398.66;;;5.25;79.87
64876;BME280;51369;49.862;9.908;2022-11-14T01:10:48;98394.34;;;5.19;80.52
64876;BME280;51369;49.862;9.908;2022-11-14T01:13:33;98393.53;;;5.16;79.97
64876;BME280;51369;49.862;9.908;2022-11-14T01:16:17;98401.66;;;5.11;80.79
64876;BME280;51369;49.862;9.908;2022-11-14T01:19:03;98395.56;;;5.05;79.80
64876;BME280;51369;49.862;9.908;2022-11-14T01:21:47;98398.28;;;5.02;80.35
64876;BME280;51369;49.862;9.908;2022-11-14T01:24:31;98397.47;;;4.98;80.94
64876;BME280;51369;49.862;9.908;2022-11-14T01:27:16;98398.38;;;4.97;80.28
64876;BME280;51369;49.862;9.908;2022-11-14T01:30:01;98393.09;;;4.94;80.63
64876;BME280;51369;49.862;9.908;2022-11-14T01:32:44;98388.69;;;4.92;81.49
64876;BME280;51369;49.862;9.908;2022-11-14T01:35:30;98387.88;;;4.88;81.25
64876;BME280;51369;49.862;9.908;2022-11-14T01:38:14;98385.28;;;4.83;81.24
64876;BME280;51369;49.862;9.908;2022-11-14T01:40:58;98375.53;;;4.81;80.99
64876;BME280;51369;49.862;9.908;2022-11-14T01:43:42;98372.00;;;4.79;81.11
64876;BME280;51369;49.862;9.908;2022-11-14T01:46:34;98370.28;;;4.75;81.63
64876;BME280;51369;49.862;9.908;2022-11-14T01:49:23;98366.72;;;4.74;82.19
64876;BME280;51369;49.862;9.908;2022-11-14T01:52:38;98357.88;;;4.72;81.77
64876;BME280;51369;49.862;9.908;2022-11-14T01:55:23;98359.66;;;4.72;81.55
64876;BME280;51369;49.862;9.908;2022-11-14T01:58:08;98361.44;;;4.71;81.46
64876;BME280;51369;49.862;9.908;2022-11-14T02:00:54;98348.09;;;4.70;81.88
64876;BME280;51369;49.862;9.908;2022-11-14T02:03:39;98348.13;;;4.68;81.99
64876;BME280;51369;49.862;9.908;2022-11-14T02:06:28;98338.38;;;4.66;82.10
64876;BME280;51369;49.862;9.908;2022-11-14T02:09:12;98338.38;;;4.66;81.64
64876;BME280;51369;49.862;9.908;2022-11-14T02:11:58;98338.44;;;4.63;82.14
64876;BME280;51369;49.862;9.908;2022-11-14T02:14:46;98326.94;;;4.59;81.46
64876;BME280;51369;49.862;9.908;2022-11-14T02:17:31;98327.84;;;4.58;81.43
64876;BME280;51369;49.862;9.908;2022-11-14T02:20:24;98325.19;;;4.56;82.28
64876;BME280;51369;49.862;9.908;2022-11-14T02:23:11;98318.06;;;4.57;81.91
64876;BME280;51369;49.862;9.908;2022-11-14T02:25:56;98324.28;;;4.57;82.68
64876;BME280;51369;49.862;9.908;2022-11-14T02:28:41;98319.00;;;4.54;83.13
64876;BME280;51369;49.862;9.908;2022-11-14T02:31:25;98319.00;;;4.54;82.17
64876;BME280;51369;49.862;9.908;2022-11-14T02:34:09;98320.75;;;4.55;82.49
64876;BME280;51369;49.862;9.908;2022-11-14T02:36:54;98314.53;;;4.55;82.80
64876;BME280;51369;49.862;9.908;2022-11-14T02:39:38;98311.94;;;4.50;82.65
64876;BME280;51369;49.862;9.908;2022-11-14T02:42:22;98312.94;;;4.45;82.48
64876;BME280;51369;49.862;9.908;2022-11-14T02:45:07;98306.84;;;4.38;81.74
64876;BME280;51369;49.862;9.908;2022-11-14T02:47:52;98314.06;;;4.33;81.82
64876;BME280;51369;49.862;9.908;2022-11-14T02:50:36;98312.38;;;4.28;81.63
64876;BME280;51369;49.862;9.908;2022-11-14T02:53:20;98313.34;;;4.23;82.06
64876;BME280;51369;49.862;9.908;2022-11-14T02:56:04;98318.78;;;4.19;81.74
64876;BME280;51369;49.862;9.908;2022-11-14T02:58:48;98311.69;;;4.16;82.68
64876;BME280;51369;49.862;9.908;2022-11-14T03:01:32;98314.44;;;4.13;82.02
64876;BME280;51369;49.862;9.908;2022-11-14T03:04:16;98313.59;;;4.10;82.66
64876;BME280;51369;49.862;9.908;2022-11-14T03:07:00;98301.22;;;4.04;82.57
64876;BME280;51369;49.862;9.908;2022-11-14T03:09:44;98303.13;;;3.98;81.91
64876;BME280;51369;49.862;9.908;2022-11-14T03:12:28;98304.94;;;3.96;81.45
64876;BME280;51369;49.862;9.908;2022-11-14T03:15:13;98299.72;;;3.89;80.99
64876;BME280;51369;49.862;9.908;2022-11-14T03:17:57;98297.09;;;3.86;82.22
64876;BME280;51369;49.862;9.908;2022-11-14T03:20:41;98293.56;;;3.84;82.00
64876;BME280;51369;49.862;9.908;2022-11-14T03:23:25;98287.38;;;3.82;82.22
64876;BME280;51369;49.862;9.908;2022-11-14T03:26:10;98282.94;;;3.81;82.23
64876;BME280;51369;49.862;9.908;2022-11-14T03:28:54;98273.13;;;3.83;82.67
64876;BME280;51369;49.862;9.908;2022-11-14T03:31:38;98255.31;;;3.84;82.92
64876;BME280;51369;49.862;9.908;2022-11-14T03:34:22;98264.22;;;3.83;83.13
64876;BME280;51369;49.862;9.908;2022-11-14T03:37:07;98261.50;;;3.86;82.94
64876;BME280;51369;49.862;9.908;2022-11-14T03:39:51;98249.78;;;3.93;83.06
64876;BME280;51369;49.862;9.908;2022-11-14T03:42:35;98254.09;;;4.00;83.35
64876;BME280;51369;49.862;9.908;2022-11-14T03:45:19;98261.25;;;4.00;83.09
64876;BME280;51369;49.862;9.908;2022-11-14T03:48:04;98257.75;;;3.96;82.55
64876;BME280;51369;49.862;9.908;2022-11-14T03:50:50;98269.41;;;3.92;83.58
64876;BME280;51369;49.862;9.908;2022-11-14T03:53:34;98267.69;;;3.88;82.58
64876;BME280;51369;49.862;9.908;2022-11-14T03:56:17;98273.09;;;3.85;82.29
64876;BME280;51369;49.862;9.908;2022-11-14T03:59:01;98272.22;;;3.83;83.04
64876;BME280;51369;49.862;9.908;2022-11-14T04:01:46;98273.19;;;3.79;83.31
64876;BME280;51369;49.862;9.908;2022-11-14T04:04:31;98269.69;;;3.75;83.00
64876;BME280;51369;49.862;9.908;2022-11-14T04:07:15;98274.19;;;3.72;83.55
64876;BME280;51369;49.862;9.908;2022-11-14T04:09:59;98277.81;;;3.69;82.34
64876;BME280;51369;49.862;9.908;2022-11-14T04:12:47;98273.41;;;3.67;82.28
64876;BME280;51369;49.862;9.908;2022-11-14T04:15:32;98273.44;;;3.65;82.70
64876;BME280;51369;49.862;9.908;2022-11-14T04:18:16;98269.03;;;3.61;83.48
64876;BME280;51369;49.862;9.908;2022-11-14T04:21:00;98261.09;;;3.58;82.45
64876;BME280;51369;49.862;9.908;2022-11-14T04:23:44;98267.38;;;3.54;82.71
64876;BME280;51369;49.862;9.908;2022-11-14T04:26:28;98270.09;;;3.51;82.47
64876;BME280;51369;49.862;9.908;2022-11-14T04:29:12;98271.03;;;3.48;82.35
64876;BME280;51369;49.862;9.908;2022-11-14T04:31:57;98270.16;;;3.48;83.10
64876;BME280;51369;49.862;9.908;2022-11-14T04:34:41;98265.66;;;3.50;83.62
64876;BME280;51369;49.862;9.908;2022-11-14T04:37:24;98267.41;;;3.52;83.46
64876;BME280;51369;49.862;9.908;2022-11-14T04:40:09;98270.03;;;3.55;84.15
64876;BME280;51369;49.862;9.908;2022-11-14T04:42:53;98270.84;;;3.59;84.45
64876;BME280;51369;49.862;9.908;2022-11-14T04:45:37;98272.53;;;3.66;84.05
64876;BME280;51369;49.862;9.908;2022-11-14T04:48:21;98275.09;;;3.71;84.23
64876;BME280;51369;49.862;9.908;2022-11-14T04:51:05;98268.78;;;3.76;84.54
64876;BME280;51369;49.862;9.908;2022-11-14T04:53:49;98269.53;;;3.84;84.69
64876;BME280;51369;49.862;9.908;2022-11-14T04:56:33;98266.69;;;3.93;84.82
64876;BME280;51369;49.862;9.908;2022-11-14T04:59:18;98267.41;;;4.03;85.61
64876;BME280;51369;49.862;9.908;2022-11-14T05:02:02;98270.75;;;4.16;85.64
64876;BME280;51369;49.862;9.908;2022-11-14T05:04:46;98265.19;;;4.27;85.81
64876;BME280;51369;49.862;9.908;2022-11-14T05:07:31;98265.88;;;4.36;85.84
64876;BME280;51369;49.862;9.908;2022-11-14T05:10:16;98261.28;;;4.44;86.41
64876;BME280;51369;49.862;9.908;2022-11-14T05:13:00;98253.13;;;4.50;86.20
64876;BME280;51369;49.862;9.908;2022-11-14T05:15:44;98243.22;;;4.55;85.80
64876;BME280;51369;49.862;9.908;2022-11-14T05:18:28;98247.53;;;4.63;85.45
64876;BME280;51369;49.862;9.908;2022-11-14T05:21:13;98247.44;;;4.67;85.18
64876;BME280;51369;49.862;9.908;2022-11-14T05:23:57;98260.72;;;4.70;85.72
64876;BME280;51369;49.862;9.908;2022-11-14T05:26:41;98266.06;;;4.72;85.23
64876;BME280;51369;49.862;9.908;2022-11-14T05:29:25;98272.19;;;4.77;85.65
64876;BME280;51369;49.862;9.908;2022-11-14T05:32:10;98253.38;;;4.81;85.60
64876;BME280;51369;49.862;9.908;2022-11-14T05:34:54;98278.19;;;4.88;85.03
64876;BME280;51369;49.862;9.908;2022-11-14T05:37:38;98273.63;;;4.93;85.22
64876;BME280;51369;49.862;9.908;2022-11-14T05:40:22;98266.38;;;4.98;85.19
64876;BME280;51369;49.862;9.908;2022-11-14T05:43:06;98269.81;;;5.03;84.94
64876;BME280;51369;49.862;9.908;2022-11-14T05:45:50;98266.97;;;5.11;85.85
64876;BME280;51369;49.862;9.908;2022-11-14T05:48:35;98260.63;;;5.15;85.88
64876;BME280;51369;49.862;9.908;2022-11-14T05:51:19;98264.94;;;5.20;85.57
64876;BME280;51369;49.862;9.908;2022-11-14T05:54:03;98258.56;;;5.26;85.89
64876;BME280;51369;49.862;9.908;2022-11-14T05:56:47;98250.38;;;5.32;85.20
64876;BME280;51369;49.862;9.908;2022-11-14T05:59:31;98250.25;;;5.38;85.03
64876;BME280;51369;49.862;9.908;2022-11-14T06:02:15;98257.28;;;5.42;85.72
64876;BME280;51369;49.862;9.908;2022-11-14T06:04:59;98258.06;;;5.47;85.60
64876;BME280;51369;49.862;9.908;2022-11-14T06:07:45;98255.25;;;5.52;85.75
64876;BME280;51369;49.862;9.908;2022-11-14T06:10:29;98257.81;;;5.56;85.41
64876;BME280;51369;49.862;9.908;2022-11-14T06:13:12;98263.06;;;5.61;85.15
64876;BME280;51369;49.862;9.908;2022-11-14T06:16:00;98280.81;;;5.65;86.14
64876;BME280;51369;49.862;9.908;2022-11-14T06:18:45;98280.72;;;5.70;85.44
64876;BME280;51369;49.862;9.908;2022-11-14T06:21:29;98284.19;;;5.73;85.74
64876;BME280;51369;49.862;9.908;2022-11-14T06:24:13;98288.56;;;5.77;85.28
64876;BME280;51369;49.862;9.908;2022-11-14T06:26:57;98290.28;;;5.80;85.70
64876;BME280;51369;49.862;9.908;2022-11-14T06:29:41;98288.41;;;5.83;85.10
64876;BME280;51369;49.862;9.908;2022-11-14T06:32:25;98280.31;;;5.85;85.36
64876;BME280;51369;49.862;9.908;2022-11-14T06:35:10;98291.00;;;5.86;85.25
64876;BME280;51369;49.862;9.908;2022-11-14T06:37:54;98295.44;;;5.87;85.46
64876;BME280;51369;49.862;9.908;2022-11-14T06:40:38;98295.41;;;5.91;85.38
64876;BME280;51369;49.862;9.908;2022-11-14T06:43:23;98296.19;;;5.94;84.56
64876;BME280;51369;49.862;9.908;2022-11-14T06:46:09;98310.44;;;5.96;84.57
64876;BME280;51369;49.862;9.908;2022-11-14T06:48:53;98303.25;;;5.98;84.33
64876;BME280;51369;49.862;9.908;2022-11-14T06:51:37;98307.66;;;6.01;84.77
64876;BME280;51369;49.862;9.908;2022-11-14T06:54:21;98310.28;;;6.02;84.77
64876;BME280;51369;49.862;9.908;2022-11-14T06:57:05;98315.59;;;6.04;84.09
64876;BME280;51369;49.862;9.908;2022-11-14T06:59:50;98305.72;;;6.06;84.75
64876;BME280;51369;49.862;9.908;2022-11-14T07:02:34;98298.53;;;6.08;84.55
64876;BME280;51369;49.862;9.908;2022-11-14T07:05:17;98293.13;;;6.09;84.27
64876;BME280;51369;49.862;9.908;2022-11-14T07:08:02;98296.66;;;6.11;84.12
64876;BME280;51369;49.862;9.908;2022-11-14T07:10:46;98300.16;;;6.13;84.57
64876;BME280;51369;49.862;9.908;2022-11-14T07:13:31;98297.41;;;6.16;84.45
64876;BME280;51369;49.862;9.908;2022-11-14T07:16:15;98303.59;;;6.18;84.71
64876;BME280;51369;49.862;9.908;2022-11-14T07:19:01;98309.78;;;6.22;84.34
64876;BME280;51369;49.862;9.908;2022-11-14T07:21:45;98317.72;;;6.25;84.41
64876;BME280;51369;49.862;9.908;2022-11-14T07:24:29;98314.09;;;6.28;84.43
64876;BME280;51369;49.862;9.908;2022-11-14T07:27:14;98312.25;;;6.30;84.32
64876;BME280;51369;49.862;9.908;2022-11-14T07:29:58;98305.88;;;6.34;84.79
64876;BME280;51369;49.862;9.908;2022-11-14T07:32:42;98300.44;;;6.37;84.82
64876;BME280;51369;49.862;9.908;2022-11-14T07:35:26;98299.47;;;6.39;84.55
64876;BME280;51369;49.862;9.908;2022-11-14T07:38:10;98306.50;;;6.43;84.92
64876;BME280;51369;49.862;9.908;2022-11-14T07:41:09;98304.69;;;6.45;84.62
64876;BME280;51369;49.862;9.908;2022-11-14T07:43:54;98304.53;;;6.50;84.42
64876;BME280;51369;49.862;9.908;2022-11-14T07:46:38;98299.09;;;6.53;84.57
64876;BME280;51369;49.862;9.908;2022-11-14T07:49:22;98289.16;;;6.57;84.37
64876;BME280;51369;49.862;9.908;2022-11-14T07:52:06;98288.25;;;6.58;84.32
64876;BME280;51369;49.862;9.908;2022-11-14T07:54:49;98290.84;;;6.61;84.47
64876;BME280;51369;49.862;9.908;2022-11-14T07:57:33;98310.38;;;6.66;85.04
64876;BME280;51369;49.862;9.908;2022-11-14T08:00:17;98324.53;;;6.71;84.45
64876;BME280;51369;49.862;9.908;2022-11-14T08:03:02;98319.06;;;6.74;84.43
64876;BME280;51369;49.862;9.908;2022-11-14T08:05:46;98324.34;;;6.77;84.23
64876;BME280;51369;49.862;9.908;2022-11-14T08:08:30;98306.38;;;6.80;84.26
64876;BME280;51369;49.862;9.908;2022-11-14T08:11:15;98308.09;;;6.83;84.61
64876;BME280;51369;49.862;9.908;2022-11-14T08:13:59;98311.56;;;6.87;84.75
64876;BME280;51369;49.862;9.908;2022-11-14T08:16:43;98320.41;;;6.90;84.35
64876;BME280;51369;49.862;9.908;2022-11-14T08:19:27;98332.84;;;6.93;84.50
64876;BME280;51369;49.862;9.908;2022-11-14T08:22:11;98327.41;;;6.94;84.35
64876;BME280;51369;49.862;9.908;2022-11-14T08:24:54;98345.28;;;6.95;84.05
64876;BME280;51369;49.862;9.908;2022-11-14T08:27:39;98351.50;;;6.96;84.26
64876;BME280;51369;49.862;9.908;2022-11-14T08:30:22;98358.66;;;6.97;84.04
64876;BME280;51369;49.862;9.908;2022-11-14T08:33:07;98351.47;;;6.97;83.95
64876;BME280;51369;49.862;9.908;2022-11-14T08:35:51;98353.22;;;6.98;83.81
64876;BME280;51369;49.862;9.908;2022-11-14T08:38:35;98355.00;;;6.99;84.12
64876;BME280;51369;49.862;9.908;2022-11-14T08:41:20;98358.47;;;7.03;84.25
64876;BME280;51369;49.862;9.908;2022-11-14T08:44:04;98337.84;;;7.05;84.46
64876;BME280;51369;49.862;9.908;2022-11-14T08:46:49;98320.72;;;7.09;84.50
64876;BME280;51369;49.862;9.908;2022-11-14T08:49:32;98317.09;;;7.10;84.22
64876;BME280;51369;49.862;9.908;2022-11-14T08:52:16;98334.91;;;7.12;84.09
64876;BME280;51369;49.862;9.908;2022-11-14T08:55:01;98322.34;;;7.14;84.17
64876;BME280;51369;49.862;9.908;2022-11-14T08:57:45;98330.34;;;7.16;84.19
64876;BME280;51369;49.862;9.908;2022-11-14T09:00:29;98329.38;;;7.18;84.08
64876;BME280;51369;49.862;9.908;2022-11-14T09:03:13;98349.00;;;7.21;84.00
64876;BME280;51369;49.862;9.908;2022-11-14T09:06:00;98343.63;;;7.21;84.02
64876;BME280;51369;49.862;9.908;2022-11-14T09:08:45;98350.75;;;7.22;83.87
64876;BME280;51369;49.862;9.908;2022-11-14T09:11:28;98344.50;;;7.21;83.94
64876;BME280;51369;49.862;9.908;2022-11-14T09:14:13;98357.88;;;7.23;84.06
64876;BME280;51369;49.862;9.908;2022-11-14T09:16:57;98357.88;;;7.23;84.26
64876;BME280;51369;49.862;9.908;2022-11-14T09:19:41;98355.13;;;7.26;83.98
64876;BME280;51369;49.862;9.908;2022-11-14T09:22:25;98346.97;;;7.29;83.86
64876;BME280;51369;49.862;9.908;2022-11-14T09:25:09;98349.56;;;7.32;84.12
64876;BME280;51369;49.862;9.908;2022-11-14T09:27:54;98335.16;;;7.34;83.88
64876;BME280;51369;49.862;9.908;2022-11-14T09:30:38;98335.03;;;7.39;84.30
64876;BME280;51369;49.862;9.908;2022-11-14T09:33:23;98324.19;;;7.42;84.00
64876;BME280;51369;49.862;9.908;2022-11-14T09:36:10;98328.53;;;7.46;84.03
64876;BME280;51369;49.862;9.908;2022-11-14T09:38:54;98315.88;;;7.49;84.51
64876;BME280;51369;49.862;9.908;2022-11-14T09:44:53;98319.34;;;7.53;84.03
64876;BME280;51369;49.862;9.908;2022-11-14T09:47:44;98317.41;;;7.58;83.73
64876;BME280;51369;49.862;9.908;2022-11-14T09:50:33;98310.13;;;7.62;83.67
64876;BME280;51369;49.862;9.908;2022-11-14T09:53:30;98317.16;;;7.66;83.83
64876;BME280;51369;49.862;9.908;2022-11-14T09:56:21;98330.41;;;7.72;83.72
64876;BME280;51369;49.862;9.908;2022-11-14T09:59:09;98326.63;;;7.77;83.61
64876;BME280;51369;49.862;9.908;2022-11-14T10:02:04;98329.13;;;7.83;84.07
64876;BME280;51369;49.862;9.908;2022-11-14T10:08:21;98331.56;;;7.91;83.57
64876;BME280;51369;49.862;9.908;2022-11-14T10:11:18;98346.56;;;7.98;83.27
64876;BME280;51369;49.862;9.908;2022-11-14T10:14:28;98357.22;;;8.01;83.06
64876;BME280;51369;49.862;9.908;2022-11-14T10:17:51;98348.19;;;8.04;82.66
64876;BME280;51369;49.862;9.908;2022-11-14T10:27:26;98339.66;;;8.18;83.19
64876;BME280;51369;49.862;9.908;2022-11-14T10:30:16;98335.81;;;8.25;83.43
64876;BME280;51369;49.862;9.908;2022-11-14T10:35:59;98336.38;;;8.36;83.17
64876;BME280;51369;49.862;9.908;2022-11-14T10:39:20;98339.78;;;8.41;82.60
64876;BME280;51369;49.862;9.908;2022-11-14T10:42:13;98356.53;;;8.49;82.37
64876;BME280;51369;49.862;9.908;2022-11-14T10:45:21;98346.59;;;8.51;82.76
64876;BME280;51369;49.862;9.908;2022-11-14T10:48:18;98340.22;;;8.54;81.83
64876;BME280;51369;49.862;9.908;2022-11-14T10:51:27;98339.25;;;8.56;81.56
64876;BME280;51369;49.862;9.908;2022-11-14T10:54:26;98335.28;;;8.66;82.48
64876;BME280;51369;49.862;9.908;2022-11-14T10:57:19;98336.63;;;8.78;82.29
64876;BME280;51369;49.862;9.908;2022-11-14T11:00:15;98329.09;;;8.88;82.33
64876;BME280;51369;49.862;9.908;2022-11-14T11:02:59;98325.25;;;8.95;81.71
64876;BME280;51369;49.862;9.908;2022-11-14T11:05:47;98317.94;;;8.98;81.02
64876;BME280;51369;49.862;9.908;2022-11-14T11:08:40;98315.13;;;9.01;80.40
64876;BME280;51369;49.862;9.908;2022-11-14T11:11:51;98313.97;;;9.08;80.52
64876;BME280;51369;49.862;9.908;2022-11-14T11:14:37;98312.56;;;9.22;81.12
64876;BME280;51369;49.862;9.908;2022-11-14T11:17:22;98310.22;;;9.36;80.92
64876;BME280;51369;49.862;9.908;2022-11-14T11:20:23;98309.84;;;9.45;79.67
64876;BME280;51369;49.862;9.908;2022-11-14T11:26:03;98313.38;;;9.47;78.66
64876;BME280;51369;49.862;9.908;2022-11-14T11:29:02;98325.09;;;9.46;79.30
64876;BME280;51369;49.862;9.908;2022-11-14T11:31:55;98328.72;;;9.45;78.77
64876;BME280;51369;49.862;9.908;2022-11-14T11:34:40;98326.13;;;9.42;78.60
64876;BME280;51369;49.862;9.908;2022-11-14T11:37:28;98328.13;;;9.37;78.41
64876;BME280;51369;49.862;9.908;2022-11-14T11:40:23;98312.09;;;9.34;78.54
64876;BME280;51369;49.862;9.908;2022-11-14T11:43:41;98318.47;;;9.31;78.42
64876;BME280;51369;49.862;9.908;2022-11-14T11:49:51;98292.28;;;9.35;78.41
64876;BME280;51369;49.862;9.908;2022-11-14T11:52:55;98283.34;;;9.34;78.55
64876;BME280;51369;49.862;9.908;2022-11-14T11:55:55;98285.25;;;9.31;78.81
64876;BME280;51369;49.862;9.908;2022-11-14T11:58:50;98285.38;;;9.28;78.48
64876;BME280;51369;49.862;9.908;2022-11-14T12:01:34;98284.44;;;9.29;79.09
64876;BME280;51369;49.862;9.908;2022-11-14T12:04:19;98281.63;;;9.32;79.49
64876;BME280;51369;49.862;9.908;2022-11-14T12:07:11;98276.06;;;9.36;79.47
64876;BME280;51369;49.862;9.908;2022-11-14T12:10:02;98277.56;;;9.43;78.78
64876;BME280;51369;49.862;9.908;2022-11-14T12:16:10;98278.41;;;9.67;79.55
64876;BME280;51369;49.862;9.908;2022-11-14T12:31:21;98261.34;;;9.89;78.89
64876;BME280;51369;49.862;9.908;2022-11-14T12:34:38;98254.88;;;9.93;78.13
64876;BME280;51369;49.862;9.908;2022-11-14T12:37:32;98257.31;;;9.99;78.44
64876;BME280;51369;49.862;9.908;2022-11-14T12:40:25;98255.31;;;10.04;78.58
64876;BME280;51369;49.862;9.908;2022-11-14T12:46:16;98247.78;;;10.12;78.01
64876;BME280;51369;49.862;9.908;2022-11-14T12:49:00;98244.81;;;10.18;78.17
64876;BME280;51369;49.862;9.908;2022-11-14T12:54:45;98248.09;;;10.26;78.62
64876;BME280;51369;49.862;9.908;2022-11-14T13:03:54;98228.50;;;10.41;77.96
64876;BME280;51369;49.862;9.908;2022-11-14T13:06:59;98225.53;;;10.48;78.05
64876;BME280;51369;49.862;9.908;2022-11-14T13:13:09;98219.72;;;10.57;78.29
64876;BME280;51369;49.862;9.908;2022-11-14T13:16:32;98217.69;;;10.62;77.46
64876;BME280;51369;49.862;9.908;2022-11-14T13:19:34;98211.19;;;10.66;77.21
64876;BME280;51369;49.862;9.908;2022-11-14T13:22:46;98211.13;;;10.67;77.75
64876;BME280;51369;49.862;9.908;2022-11-14T13:25:31;98203.03;;;10.67;77.52
64876;BME280;51369;49.862;9.908;2022-11-14T13:43:54;98178.00;;;11.39;78.10
64876;BME280;51369;49.862;9.908;2022-11-14T13:49:57;98181.69;;;11.55;77.72
64876;BME280;51369;49.862;9.908;2022-11-14T13:52:45;98178.53;;;11.64;77.19
64876;BME280;51369;49.862;9.908;2022-11-14T14:08:35;98172.78;;;11.89;76.13
64876;BME280;51369;49.862;9.908;2022-11-14T14:11:34;98151.94;;;11.91;76.25
64876;BME280;51369;49.862;9.908;2022-11-14T14:17:33;98144.53;;;11.95;75.63
64876;BME280;51369;49.862;9.908;2022-11-14T14:23:57;98143.13;;;11.88;75.05
64876;BME280;51369;49.862;9.908;2022-11-14T14:27:07;98144.31;;;11.82;74.79
64876;BME280;51369;49.862;9.908;2022-11-14T14:30:08;98147.16;;;11.79;75.03
64876;BME280;51369;49.862;9.908;2022-11-14T14:33:14;98144.75;;;11.73;75.21
64876;BME280;51369;49.862;9.908;2022-11-14T14:35:58;98147.38;;;11.74;75.78
64876;BME280;51369;49.862;9.908;2022-11-14T14:38:42;98135.66;;;11.74;75.72
64876;BME280;51369;49.862;9.908;2022-11-14T14:41:31;98133.91;;;11.73;75.85
64876;BME280;51369;49.862;9.908;2022-11-14T14:44:23;98138.44;;;11.72;76.15
64876;BME280;51369;49.862;9.908;2022-11-14T14:47:41;98125.97;;;11.70;75.36
64876;BME280;51369;49.862;9.908;2022-11-14T14:50:30;98129.63;;;11.69;76.52
64876;BME280;51369;49.862;9.908;2022-11-14T14:53:22;98130.66;;;11.66;76.17
64876;BME280;51369;49.862;9.908;2022-11-14T14:56:17;98128.91;;;11.65;76.35
64876;BME280;51369;49.862;9.908;2022-11-14T14:59:17;98137.16;;;11.62;75.99
64876;BME280;51369;49.862;9.908;2022-11-14T15:02:02;98125.41;;;11.63;75.67
64876;BME280;51369;49.862;9.908;2022-11-14T15:04:46;98120.31;;;11.57;75.41
64876;BME280;51369;49.862;9.908;2022-11-14T15:07:30;98129.53;;;11.53;76.13
64876;BME280;51369;49.862;9.908;2022-11-14T15:10:19;98120.84;;;11.47;75.60
64876;BME280;51369;49.862;9.908;2022-11-14T15:13:04;98124.72;;;11.41;75.58
64876;BME280;51369;49.862;9.908;2022-11-14T15:15:49;98130.44;;;11.35;76.42
64876;BME280;51369;49.862;9.908;2022-11-14T15:18:34;98123.59;;;11.28;75.82
64876;BME280;51369;49.862;9.908;2022-11-14T15:21:26;98116.88;;;11.18;76.05
64876;BME280;51369;49.862;9.908;2022-11-14T15:26:57;98104.28;;;10.99;76.74
64876;BME280;51369;49.862;9.908;2022-11-14T15:29:47;98106.56;;;10.90;76.92
64876;BME280;51369;49.862;9.908;2022-11-14T15:32:33;98108.81;;;10.80;76.63
64876;BME280;51369;49.862;9.908;2022-11-14T15:44:00;98117.69;;;10.44;78.30
64876;BME280;51369;49.862;9.908;2022-11-14T15:46:48;98118.97;;;10.37;78.32
64876;BME280;51369;49.862;9.908;2022-11-14T15:49:32;98108.44;;;10.31;78.48
64876;BME280;51369;49.862;9.908;2022-11-14T15:52:39;98112.50;;;10.21;78.63
64876;BME280;51369;49.862;9.908;2022-11-14T15:55:23;98108.97;;;10.19;78.10
64876;BME280;51369;49.862;9.908;2022-11-14T15:58:09;98116.47;;;10.13;78.95
64876;BME280;51369;49.862;9.908;2022-11-14T16:00:53;98116.66;;;10.08;79.33
64876;BME280;51369;49.862;9.908;2022-11-14T16:03:38;98119.56;;;10.03;79.25
64876;BME280;51369;49.862;9.908;2022-11-14T16:06:22;98121.53;;;10.00;80.06
64876;BME280;51369;49.862;9.908;2022-11-14T16:09:13;98118.97;;;9.97;79.99
64876;BME280;51369;49.862;9.908;2022-11-14T16:11:57;98124.38;;;9.97;80.34
64876;BME280;51369;49.862;9.908;2022-11-14T16:14:41;98113.72;;;9.94;79.84
64876;BME280;51369;49.862;9.908;2022-11-14T16:17:25;98118.38;;;9.90;80.53
64876;BME280;51369;49.862;9.908;2022-11-14T16:20:14;98116.69;;;9.88;80.08
64876;BME280;51369;49.862;9.908;2022-11-14T16:23:01;98121.25;;;9.86;81.20
64876;BME280;51369;49.862;9.908;2022-11-14T16:25:46;98116.00;;;9.83;80.80
64876;BME280;51369;49.862;9.908;2022-11-14T16:28:31;98121.53;;;9.79;80.31
64876;BME280;51369;49.862;9.908;2022-11-14T16:31:16;98126.13;;;9.77;81.45
64876;BME280;51369;49.862;9.908;2022-11-14T16:34:00;98117.22;;;9.75;80.71
64876;BME280;51369;49.862;9.908;2022-11-14T16:36:45;98118.97;;;9.76;81.11
64876;BME280;51369;49.862;9.908;2022-11-14T16:39:30;98119.78;;;9.78;81.89
64876;BME280;51369;49.862;9.908;2022-11-14T16:42:14;98113.44;;;9.79;82.11